Bilbao, Spain

11:55 AM CEST on July 28, 2015 (GMT +0200)
Campo Volantin | | Change Station
CLOSE
Current Station
Personal Weather Station
Location: Bilbao, PAS VASCO
Elevation: 200 ft
Nearby Weather Stations

Elev 200 ft 43.27 °N, 2.93 °W | Updated 10 minutes ago

Partly Cloudy
Partly Cloudy
74.1 °F
Feels Like 77 °F
N
0.0
Wind Variable Wind from NE
Gusts 7.0 mph

Today
High -- | Low -- °F
--% Chance of Precip.
Yesterday
High -- | Low -- °F
Precip. -- in
6:57 AM 9:38 PM
Waxing Gibbous, 88% visible
Pressure 30.01 in
Visibility 6.2 miles
Clouds Few 3000 ft
Heat Index 77 °F
Dew Point 60 °F
Humidity 62%
Rainfall 0.00 in
Snow Depth Not available.
UV 7 out of 12
Pollen Not available.
Air Quality Not available.
Flu Activity Not available.
METAR LEBB 280930Z VRB01KT 9999 FEW030 24/15 Q1016 NOSIG

More Conditions Fewer Conditions

Pressure 30.01 in
Visibility 6.2 miles
Clouds Few 3000 ft
Heat Index 77 °F
Dew Point 60 °F
Humidity 62%
Rainfall 0.00 in
Snow Depth Not available.
UV 7 out of 12
Pollen Not available.
Air Quality Not available.
Flu Activity Not available.
METAR LEBB 280930Z VRB01KT 9999 FEW030 24/15 Q1016 NOSIG

More Conditions Fewer Conditions

10-Day Weather Forecast

×

Almanac

Astronomy

Jul. 28, 2015 Rise Set
Actual Time
Civil Twilight
Nautical Twilight
Astronomical Twilight
Moon
Length of Visible Light
Length of Day
Tomorrow will be .
, % of the Moon is Illuminated

Today's Extremes

Country Highs Country Lows

Community

WunderPhotos

Upload Photos

1,841,800 photos uploaded!

WunderBlogs® & News

Nearby

Air Quality

  Air Quality AQ Index Pollutant
Not available.

Snow Depth

Station Depth Elevation

Earthquake Activity

City Distance Mag. Time & Date
Minimum magnitude displayed is 2.5.

Coastal Water Temperatures

Place Temperature

Stations

Nearby Weather Stations

Station Location Temp. Windchill Dew Point Humidity Wind Precip. Elev Updated Type